sensor_id;sensor_type;location;lat;lon;timestamp;P1;durP1;ratioP1;P2;durP2;ratioP2
59181;SDS011;45293;44.606;21.176;2022-12-07T00:01:15;48.15;;;17.45;;
59181;SDS011;45293;44.606;21.176;2022-12-07T00:03:42;33.63;;;14.23;;
59181;SDS011;45293;44.606;21.176;2022-12-07T00:06:09;38.70;;;13.45;;
59181;SDS011;45293;44.606;21.176;2022-12-07T00:08:35;33.00;;;11.35;;
59181;SDS011;45293;44.606;21.176;2022-12-07T00:11:03;40.40;;;13.93;;
59181;SDS011;45293;44.606;21.176;2022-12-07T00:13:29;55.65;;;15.60;;
59181;SDS011;45293;44.606;21.176;2022-12-07T00:15:55;42.88;;;15.02;;
59181;SDS011;45293;44.606;21.176;2022-12-07T00:18:21;36.95;;;13.93;;
59181;SDS011;45293;44.606;21.176;2022-12-07T00:20:48;35.22;;;13.68;;
59181;SDS011;45293;44.606;21.176;2022-12-07T00:23:14;39.30;;;13.43;;
59181;SDS011;45293;44.606;21.176;2022-12-07T00:25:40;36.08;;;13.00;;
59181;SDS011;45293;44.606;21.176;2022-12-07T00:28:06;26.50;;;10.68;;
59181;SDS011;45293;44.606;21.176;2022-12-07T00:30:34;17.40;;;7.05;;
59181;SDS011;45293;44.606;21.176;2022-12-07T00:33:00;23.15;;;8.00;;
59181;SDS011;45293;44.606;21.176;2022-12-07T00:35:26;18.15;;;7.63;;
59181;SDS011;45293;44.606;21.176;2022-12-07T00:37:52;15.73;;;7.85;;
59181;SDS011;45293;44.606;21.176;2022-12-07T00:40:19;20.80;;;8.40;;
59181;SDS011;45293;44.606;21.176;2022-12-07T00:42:45;16.23;;;7.30;;
59181;SDS011;45293;44.606;21.176;2022-12-07T00:45:11;18.38;;;8.70;;
59181;SDS011;45293;44.606;21.176;2022-12-07T00:47:37;30.40;;;10.32;;
59181;SDS011;45293;44.606;21.176;2022-12-07T00:50:03;34.47;;;11.77;;
59181;SDS011;45293;44.606;21.176;2022-12-07T00:52:29;27.77;;;9.57;;
59181;SDS011;45293;44.606;21.176;2022-12-07T00:54:55;47.67;;;14.00;;
59181;SDS011;45293;44.606;21.176;2022-12-07T00:57:21;28.67;;;10.07;;
59181;SDS011;45293;44.606;21.176;2022-12-07T00:59:48;20.42;;;7.45;;
59181;SDS011;45293;44.606;21.176;2022-12-07T01:02:14;20.83;;;7.80;;
59181;SDS011;45293;44.606;21.176;2022-12-07T01:04:40;23.23;;;8.02;;
59181;SDS011;45293;44.606;21.176;2022-12-07T01:07:06;28.38;;;10.75;;
59181;SDS011;45293;44.606;21.176;2022-12-07T01:09:32;20.50;;;8.20;;
59181;SDS011;45293;44.606;21.176;2022-12-07T01:11:58;21.02;;;6.72;;
59181;SDS011;45293;44.606;21.176;2022-12-07T01:14:24;28.17;;;9.05;;
59181;SDS011;45293;44.606;21.176;2022-12-07T01:16:50;20.85;;;7.32;;
59181;SDS011;45293;44.606;21.176;2022-12-07T01:19:16;20.65;;;7.10;;
59181;SDS011;45293;44.606;21.176;2022-12-07T01:21:42;22.92;;;8.07;;
59181;SDS011;45293;44.606;21.176;2022-12-07T01:24:09;20.38;;;7.40;;
59181;SDS011;45293;44.606;21.176;2022-12-07T01:26:36;15.27;;;6.55;;
59181;SDS011;45293;44.606;21.176;2022-12-07T01:29:02;13.93;;;5.55;;
59181;SDS011;45293;44.606;21.176;2022-12-07T01:31:28;15.98;;;5.47;;
59181;SDS011;45293;44.606;21.176;2022-12-07T01:33:56;9.25;;;4.05;;
59181;SDS011;45293;44.606;21.176;2022-12-07T01:36:23;7.97;;;3.10;;
59181;SDS011;45293;44.606;21.176;2022-12-07T01:38:50;7.93;;;4.00;;
59181;SDS011;45293;44.606;21.176;2022-12-07T01:41:18;7.00;;;3.00;;
59181;SDS011;45293;44.606;21.176;2022-12-07T01:46:29;5.15;;;2.67;;
59181;SDS011;45293;44.606;21.176;2022-12-07T01:48:55;9.32;;;2.63;;
59181;SDS011;45293;44.606;21.176;2022-12-07T01:51:21;4.03;;;1.88;;
59181;SDS011;45293;44.606;21.176;2022-12-07T01:53:47;6.55;;;2.83;;
59181;SDS011;45293;44.606;21.176;2022-12-07T01:56:15;5.53;;;2.55;;
59181;SDS011;45293;44.606;21.176;2022-12-07T01:58:42;7.22;;;2.35;;
59181;SDS011;45293;44.606;21.176;2022-12-07T02:01:09;7.85;;;3.60;;
59181;SDS011;45293;44.606;21.176;2022-12-07T02:03:39;9.10;;;3.55;;
59181;SDS011;45293;44.606;21.176;2022-12-07T02:06:05;10.30;;;3.63;;
59181;SDS011;45293;44.606;21.176;2022-12-07T02:08:32;12.63;;;3.72;;
59181;SDS011;45293;44.606;21.176;2022-12-07T02:10:59;10.30;;;4.18;;
59181;SDS011;45293;44.606;21.176;2022-12-07T02:13:26;9.48;;;3.85;;
59181;SDS011;45293;44.606;21.176;2022-12-07T02:21:20;7.97;;;3.88;;
59181;SDS011;45293;44.606;21.176;2022-12-07T02:29:12;8.07;;;3.92;;
59181;SDS011;45293;44.606;21.176;2022-12-07T02:31:43;15.13;;;5.72;;
59181;SDS011;45293;44.606;21.176;2022-12-07T02:34:31;16.92;;;6.95;;
59181;SDS011;45293;44.606;21.176;2022-12-07T02:37:00;20.77;;;8.00;;
59181;SDS011;45293;44.606;21.176;2022-12-07T02:39:34;23.45;;;8.85;;
59181;SDS011;45293;44.606;21.176;2022-12-07T02:42:05;17.55;;;7.18;;
59181;SDS011;45293;44.606;21.176;2022-12-07T02:44:33;15.13;;;6.00;;
59181;SDS011;45293;44.606;21.176;2022-12-07T02:47:03;15.30;;;5.80;;
59181;SDS011;45293;44.606;21.176;2022-12-07T02:49:30;12.82;;;5.07;;
59181;SDS011;45293;44.606;21.176;2022-12-07T02:51:57;4.38;;;1.95;;
59181;SDS011;45293;44.606;21.176;2022-12-07T02:54:23;4.53;;;2.40;;
59181;SDS011;45293;44.606;21.176;2022-12-07T03:07:41;17.17;;;6.65;;
59181;SDS011;45293;44.606;21.176;2022-12-07T03:10:11;15.52;;;5.28;;
59181;SDS011;45293;44.606;21.176;2022-12-07T03:12:44;10.25;;;4.70;;
59181;SDS011;45293;44.606;21.176;2022-12-07T03:15:13;10.63;;;4.60;;
59181;SDS011;45293;44.606;21.176;2022-12-07T03:17:40;9.63;;;3.78;;
59181;SDS011;45293;44.606;21.176;2022-12-07T03:20:09;8.50;;;3.70;;
59181;SDS011;45293;44.606;21.176;2022-12-07T03:22:37;9.93;;;4.25;;
59181;SDS011;45293;44.606;21.176;2022-12-07T03:25:09;8.00;;;4.10;;
59181;SDS011;45293;44.606;21.176;2022-12-07T03:27:41;11.73;;;4.30;;
59181;SDS011;45293;44.606;21.176;2022-12-07T03:30:09;7.68;;;3.75;;
59181;SDS011;45293;44.606;21.176;2022-12-07T03:37:32;18.77;;;6.55;;
59181;SDS011;45293;44.606;21.176;2022-12-07T03:42:44;7.97;;;3.05;;
59181;SDS011;45293;44.606;21.176;2022-12-07T03:45:11;6.88;;;3.30;;
59181;SDS011;45293;44.606;21.176;2022-12-07T03:47:48;6.38;;;3.50;;
59181;SDS011;45293;44.606;21.176;2022-12-07T03:50:25;7.05;;;3.85;;
59181;SDS011;45293;44.606;21.176;2022-12-07T03:52:58;6.15;;;3.30;;
59181;SDS011;45293;44.606;21.176;2022-12-07T03:55:32;8.27;;;3.58;;
59181;SDS011;45293;44.606;21.176;2022-12-07T03:58:00;11.57;;;4.70;;
59181;SDS011;45293;44.606;21.176;2022-12-07T04:00:27;10.88;;;4.80;;
59181;SDS011;45293;44.606;21.176;2022-12-07T04:02:54;10.20;;;3.90;;
59181;SDS011;45293;44.606;21.176;2022-12-07T04:05:20;9.15;;;4.95;;
59181;SDS011;45293;44.606;21.176;2022-12-07T04:07:46;8.82;;;4.40;;
59181;SDS011;45293;44.606;21.176;2022-12-07T04:10:13;10.65;;;4.75;;
59181;SDS011;45293;44.606;21.176;2022-12-07T04:12:39;6.20;;;3.63;;
59181;SDS011;45293;44.606;21.176;2022-12-07T04:15:05;7.47;;;3.28;;
59181;SDS011;45293;44.606;21.176;2022-12-07T04:17:32;4.78;;;2.65;;
59181;SDS011;45293;44.606;21.176;2022-12-07T04:19:58;4.47;;;2.17;;
59181;SDS011;45293;44.606;21.176;2022-12-07T04:22:24;5.13;;;2.55;;
59181;SDS011;45293;44.606;21.176;2022-12-07T04:24:50;5.15;;;2.92;;
59181;SDS011;45293;44.606;21.176;2022-12-07T04:27:16;3.35;;;2.10;;
59181;SDS011;45293;44.606;21.176;2022-12-07T04:29:42;4.57;;;2.58;;
59181;SDS011;45293;44.606;21.176;2022-12-07T04:32:08;4.15;;;2.25;;
59181;SDS011;45293;44.606;21.176;2022-12-07T04:34:34;2.78;;;2.03;;
59181;SDS011;45293;44.606;21.176;2022-12-07T04:37:00;3.33;;;2.08;;
59181;SDS011;45293;44.606;21.176;2022-12-07T04:39:27;5.38;;;2.40;;
59181;SDS011;45293;44.606;21.176;2022-12-07T04:41:54;4.57;;;2.38;;
59181;SDS011;45293;44.606;21.176;2022-12-07T04:44:20;4.85;;;2.70;;
59181;SDS011;45293;44.606;21.176;2022-12-07T04:46:47;7.32;;;2.65;;
59181;SDS011;45293;44.606;21.176;2022-12-07T04:49:13;5.63;;;2.03;;
59181;SDS011;45293;44.606;21.176;2022-12-07T04:51:40;3.67;;;1.90;;
59181;SDS011;45293;44.606;21.176;2022-12-07T04:54:06;3.55;;;2.03;;
59181;SDS011;45293;44.606;21.176;2022-12-07T04:56:32;4.63;;;1.95;;
59181;SDS011;45293;44.606;21.176;2022-12-07T04:59:00;3.60;;;1.70;;
59181;SDS011;45293;44.606;21.176;2022-12-07T05:01:26;8.48;;;2.60;;
59181;SDS011;45293;44.606;21.176;2022-12-07T05:03:52;6.80;;;3.10;;
59181;SDS011;45293;44.606;21.176;2022-12-07T05:06:18;4.10;;;2.45;;
59181;SDS011;45293;44.606;21.176;2022-12-07T05:08:44;7.15;;;2.20;;
59181;SDS011;45293;44.606;21.176;2022-12-07T05:11:11;5.70;;;2.97;;
59181;SDS011;45293;44.606;21.176;2022-12-07T05:13:57;7.47;;;3.65;;
59181;SDS011;45293;44.606;21.176;2022-12-07T05:16:23;5.88;;;2.92;;
59181;SDS011;45293;44.606;21.176;2022-12-07T05:18:49;9.02;;;4.05;;
59181;SDS011;45293;44.606;21.176;2022-12-07T05:21:15;6.28;;;3.75;;
59181;SDS011;45293;44.606;21.176;2022-12-07T05:23:41;6.72;;;2.88;;
59181;SDS011;45293;44.606;21.176;2022-12-07T05:26:07;5.95;;;3.00;;
59181;SDS011;45293;44.606;21.176;2022-12-07T05:28:33;5.18;;;2.78;;
59181;SDS011;45293;44.606;21.176;2022-12-07T05:30:59;3.78;;;2.25;;
59181;SDS011;45293;44.606;21.176;2022-12-07T05:33:26;5.78;;;2.53;;
59181;SDS011;45293;44.606;21.176;2022-12-07T05:35:52;5.95;;;2.85;;
59181;SDS011;45293;44.606;21.176;2022-12-07T05:38:18;7.07;;;3.13;;
59181;SDS011;45293;44.606;21.176;2022-12-07T05:40:44;21.08;;;9.00;;
59181;SDS011;45293;44.606;21.176;2022-12-07T05:43:10;21.65;;;9.50;;
59181;SDS011;45293;44.606;21.176;2022-12-07T05:45:36;13.43;;;6.15;;
59181;SDS011;45293;44.606;21.176;2022-12-07T05:48:02;11.93;;;5.50;;
59181;SDS011;45293;44.606;21.176;2022-12-07T05:50:28;12.95;;;5.40;;
59181;SDS011;45293;44.606;21.176;2022-12-07T05:52:55;7.38;;;3.20;;
59181;SDS011;45293;44.606;21.176;2022-12-07T05:55:21;7.85;;;3.72;;
59181;SDS011;45293;44.606;21.176;2022-12-07T05:57:47;28.65;;;12.95;;
59181;SDS011;45293;44.606;21.176;2022-12-07T06:00:32;10.30;;;5.38;;
59181;SDS011;45293;44.606;21.176;2022-12-07T06:02:58;7.65;;;3.85;;
59181;SDS011;45293;44.606;21.176;2022-12-07T06:05:24;6.40;;;3.10;;
59181;SDS011;45293;44.606;21.176;2022-12-07T06:07:50;8.68;;;3.22;;
59181;SDS011;45293;44.606;21.176;2022-12-07T06:10:16;7.90;;;4.25;;
59181;SDS011;45293;44.606;21.176;2022-12-07T06:12:42;6.47;;;3.67;;
59181;SDS011;45293;44.606;21.176;2022-12-07T06:15:11;8.98;;;2.95;;
59181;SDS011;45293;44.606;21.176;2022-12-07T06:17:38;16.48;;;10.77;;
59181;SDS011;45293;44.606;21.176;2022-12-07T06:20:04;10.07;;;7.63;;
59181;SDS011;45293;44.606;21.176;2022-12-07T06:22:31;9.73;;;6.57;;
59181;SDS011;45293;44.606;21.176;2022-12-07T06:24:57;12.98;;;4.82;;
59181;SDS011;45293;44.606;21.176;2022-12-07T06:27:23;9.57;;;4.82;;
59181;SDS011;45293;44.606;21.176;2022-12-07T06:29:49;21.70;;;8.90;;
59181;SDS011;45293;44.606;21.176;2022-12-07T06:32:15;24.73;;;9.90;;
59181;SDS011;45293;44.606;21.176;2022-12-07T06:34:41;25.25;;;10.57;;
59181;SDS011;45293;44.606;21.176;2022-12-07T06:37:07;20.95;;;9.45;;
59181;SDS011;45293;44.606;21.176;2022-12-07T06:39:33;22.00;;;9.63;;
59181;SDS011;45293;44.606;21.176;2022-12-07T06:41:59;16.65;;;8.43;;
59181;SDS011;45293;44.606;21.176;2022-12-07T06:44:25;15.88;;;8.23;;
59181;SDS011;45293;44.606;21.176;2022-12-07T06:46:52;14.65;;;6.47;;
59181;SDS011;45293;44.606;21.176;2022-12-07T06:49:18;11.43;;;4.70;;
59181;SDS011;45293;44.606;21.176;2022-12-07T06:51:44;12.07;;;4.85;;
59181;SDS011;45293;44.606;21.176;2022-12-07T06:54:11;5.97;;;3.60;;
59181;SDS011;45293;44.606;21.176;2022-12-07T06:56:37;4.90;;;2.70;;
59181;SDS011;45293;44.606;21.176;2022-12-07T06:59:04;7.78;;;3.25;;
59181;SDS011;45293;44.606;21.176;2022-12-07T07:01:31;10.85;;;4.63;;
59181;SDS011;45293;44.606;21.176;2022-12-07T07:03:57;9.15;;;3.92;;
59181;SDS011;45293;44.606;21.176;2022-12-07T07:06:23;9.15;;;4.50;;
59181;SDS011;45293;44.606;21.176;2022-12-07T07:08:49;10.77;;;3.75;;
59181;SDS011;45293;44.606;21.176;2022-12-07T07:11:16;7.10;;;3.58;;
59181;SDS011;45293;44.606;21.176;2022-12-07T07:13:42;7.03;;;4.05;;
59181;SDS011;45293;44.606;21.176;2022-12-07T07:16:08;9.80;;;3.97;;
59181;SDS011;45293;44.606;21.176;2022-12-07T07:18:34;6.90;;;4.50;;
59181;SDS011;45293;44.606;21.176;2022-12-07T07:21:00;9.38;;;4.50;;
59181;SDS011;45293;44.606;21.176;2022-12-07T07:23:27;6.57;;;3.22;;
59181;SDS011;45293;44.606;21.176;2022-12-07T07:25:53;10.20;;;4.60;;
59181;SDS011;45293;44.606;21.176;2022-12-07T07:28:19;8.27;;;4.63;;
59181;SDS011;45293;44.606;21.176;2022-12-07T07:30:45;12.50;;;5.57;;
59181;SDS011;45293;44.606;21.176;2022-12-07T07:33:11;9.73;;;5.43;;
59181;SDS011;45293;44.606;21.176;2022-12-07T07:35:38;8.65;;;4.68;;
59181;SDS011;45293;44.606;21.176;2022-12-07T07:38:04;8.25;;;5.05;;
59181;SDS011;45293;44.606;21.176;2022-12-07T07:40:30;7.90;;;4.53;;
59181;SDS011;45293;44.606;21.176;2022-12-07T07:42:57;19.85;;;10.43;;
59181;SDS011;45293;44.606;21.176;2022-12-07T07:45:23;28.65;;;12.27;;
59181;SDS011;45293;44.606;21.176;2022-12-07T07:47:50;30.98;;;13.00;;
59181;SDS011;45293;44.606;21.176;2022-12-07T07:50:16;30.63;;;15.30;;
59181;SDS011;45293;44.606;21.176;2022-12-07T07:52:43;14.90;;;7.55;;
59181;SDS011;45293;44.606;21.176;2022-12-07T07:55:09;11.23;;;5.30;;
59181;SDS011;45293;44.606;21.176;2022-12-07T07:57:36;12.52;;;6.60;;
59181;SDS011;45293;44.606;21.176;2022-12-07T08:00:06;15.63;;;7.93;;
59181;SDS011;45293;44.606;21.176;2022-12-07T08:02:32;22.00;;;8.75;;
59181;SDS011;45293;44.606;21.176;2022-12-07T08:04:58;21.85;;;9.77;;
59181;SDS011;45293;44.606;21.176;2022-12-07T08:07:24;16.73;;;8.55;;
59181;SDS011;45293;44.606;21.176;2022-12-07T08:09:50;21.40;;;10.52;;
59181;SDS011;45293;44.606;21.176;2022-12-07T08:12:17;18.17;;;8.45;;
59181;SDS011;45293;44.606;21.176;2022-12-07T08:14:43;17.92;;;7.85;;
59181;SDS011;45293;44.606;21.176;2022-12-07T08:17:09;20.42;;;9.10;;
59181;SDS011;45293;44.606;21.176;2022-12-07T08:19:35;14.05;;;7.25;;
59181;SDS011;45293;44.606;21.176;2022-12-07T08:22:02;10.23;;;5.25;;
59181;SDS011;45293;44.606;21.176;2022-12-07T08:24:28;12.13;;;6.20;;
59181;SDS011;45293;44.606;21.176;2022-12-07T08:26:54;11.45;;;5.63;;
59181;SDS011;45293;44.606;21.176;2022-12-07T08:29:20;11.65;;;5.53;;
59181;SDS011;45293;44.606;21.176;2022-12-07T08:31:46;9.38;;;5.28;;
59181;SDS011;45293;44.606;21.176;2022-12-07T08:34:13;10.68;;;5.70;;
59181;SDS011;45293;44.606;21.176;2022-12-07T08:36:39;10.18;;;4.90;;
59181;SDS011;45293;44.606;21.176;2022-12-07T08:39:05;18.33;;;7.50;;
59181;SDS011;45293;44.606;21.176;2022-12-07T08:41:31;21.70;;;8.10;;
59181;SDS011;45293;44.606;21.176;2022-12-07T08:43:58;28.02;;;16.40;;
59181;SDS011;45293;44.606;21.176;2022-12-07T08:46:29;26.30;;;14.18;;
59181;SDS011;45293;44.606;21.176;2022-12-07T08:49:01;17.85;;;8.48;;
59181;SDS011;45293;44.606;21.176;2022-12-07T08:51:27;18.55;;;8.65;;
59181;SDS011;45293;44.606;21.176;2022-12-07T08:53:53;23.10;;;9.32;;
59181;SDS011;45293;44.606;21.176;2022-12-07T08:56:20;52.67;;;18.67;;
59181;SDS011;45293;44.606;21.176;2022-12-07T08:58:47;68.97;;;21.75;;
59181;SDS011;45293;44.606;21.176;2022-12-07T09:01:14;68.57;;;24.05;;
59181;SDS011;45293;44.606;21.176;2022-12-07T09:03:40;43.40;;;17.20;;
59181;SDS011;45293;44.606;21.176;2022-12-07T09:06:06;23.95;;;10.75;;
59181;SDS011;45293;44.606;21.176;2022-12-07T09:08:34;18.55;;;9.00;;
59181;SDS011;45293;44.606;21.176;2022-12-07T09:11:02;21.30;;;8.35;;
59181;SDS011;45293;44.606;21.176;2022-12-07T09:13:28;17.25;;;8.57;;
59181;SDS011;45293;44.606;21.176;2022-12-07T09:15:54;17.13;;;7.75;;
59181;SDS011;45293;44.606;21.176;2022-12-07T09:18:20;13.60;;;6.50;;
59181;SDS011;45293;44.606;21.176;2022-12-07T09:20:46;15.55;;;7.65;;
59181;SDS011;45293;44.606;21.176;2022-12-07T09:23:12;22.48;;;10.63;;
59181;SDS011;45293;44.606;21.176;2022-12-07T09:25:38;16.70;;;8.10;;
59181;SDS011;45293;44.606;21.176;2022-12-07T09:28:04;38.38;;;17.00;;
59181;SDS011;45293;44.606;21.176;2022-12-07T09:30:30;43.35;;;21.63;;
59181;SDS011;45293;44.606;21.176;2022-12-07T09:32:56;53.75;;;23.35;;
59181;SDS011;45293;44.606;21.176;2022-12-07T09:35:23;51.53;;;22.15;;
59181;SDS011;45293;44.606;21.176;2022-12-07T09:37:49;33.08;;;17.23;;
59181;SDS011;45293;44.606;21.176;2022-12-07T09:40:16;39.20;;;19.80;;
59181;SDS011;45293;44.606;21.176;2022-12-07T09:42:51;27.95;;;13.77;;
59181;SDS011;45293;44.606;21.176;2022-12-07T09:45:22;32.85;;;15.80;;
59181;SDS011;45293;44.606;21.176;2022-12-07T09:47:49;37.90;;;18.13;;
59181;SDS011;45293;44.606;21.176;2022-12-07T09:50:17;37.60;;;19.67;;
59181;SDS011;45293;44.606;21.176;2022-12-07T09:52:43;30.67;;;13.55;;
59181;SDS011;45293;44.606;21.176;2022-12-07T09:55:11;31.05;;;15.50;;
59181;SDS011;45293;44.606;21.176;2022-12-07T09:57:38;40.78;;;18.35;;
59181;SDS011;45293;44.606;21.176;2022-12-07T10:00:06;35.00;;;17.33;;
59181;SDS011;45293;44.606;21.176;2022-12-07T10:02:37;32.92;;;16.13;;
59181;SDS011;45293;44.606;21.176;2022-12-07T10:05:06;31.48;;;14.77;;
59181;SDS011;45293;44.606;21.176;2022-12-07T10:07:33;32.40;;;14.73;;
59181;SDS011;45293;44.606;21.176;2022-12-07T10:10:01;35.95;;;16.52;;
59181;SDS011;45293;44.606;21.176;2022-12-07T10:12:27;35.88;;;18.17;;
59181;SDS011;45293;44.606;21.176;2022-12-07T10:17:30;25.52;;;13.13;;
59181;SDS011;45293;44.606;21.176;2022-12-07T10:20:41;23.70;;;12.80;;
59181;SDS011;45293;44.606;21.176;2022-12-07T10:22:56;26.35;;;12.73;;
59181;SDS011;45293;44.606;21.176;2022-12-07T10:25:22;24.20;;;12.05;;
59181;SDS011;45293;44.606;21.176;2022-12-07T10:27:59;31.30;;;12.35;;
59181;SDS011;45293;44.606;21.176;2022-12-07T10:30:26;20.98;;;11.20;;
59181;SDS011;45293;44.606;21.176;2022-12-07T10:32:52;19.63;;;11.43;;
59181;SDS011;45293;44.606;21.176;2022-12-07T10:37:51;18.20;;;9.02;;
59181;SDS011;45293;44.606;21.176;2022-12-07T10:43:35;26.05;;;14.73;;
59181;SDS011;45293;44.606;21.176;2022-12-07T10:45:36;22.50;;;11.35;;
59181;SDS011;45293;44.606;21.176;2022-12-07T10:48:23;20.70;;;10.40;;
59181;SDS011;45293;44.606;21.176;2022-12-07T11:01:25;25.98;;;13.05;;
59181;SDS011;45293;44.606;21.176;2022-12-07T11:06:38;23.33;;;12.20;;
59181;SDS011;45293;44.606;21.176;2022-12-07T11:19:34;15.48;;;8.18;;
59181;SDS011;45293;44.606;21.176;2022-12-07T11:22:10;17.90;;;9.40;;
59181;SDS011;45293;44.606;21.176;2022-12-07T11:27:18;17.33;;;8.10;;
59181;SDS011;45293;44.606;21.176;2022-12-07T11:37:24;34.80;;;15.75;;
59181;SDS011;45293;44.606;21.176;2022-12-07T11:39:52;31.48;;;15.00;;
59181;SDS011;45293;44.606;21.176;2022-12-07T11:42:21;26.48;;;12.48;;
59181;SDS011;45293;44.606;21.176;2022-12-07T11:45:34;12.00;;;7.55;;
59181;SDS011;45293;44.606;21.176;2022-12-07T11:52:58;18.00;;;9.90;;
59181;SDS011;45293;44.606;21.176;2022-12-07T11:58:19;15.68;;;8.70;;
59181;SDS011;45293;44.606;21.176;2022-12-07T12:00:48;16.27;;;8.27;;
59181;SDS011;45293;44.606;21.176;2022-12-07T12:03:15;18.63;;;10.18;;
59181;SDS011;45293;44.606;21.176;2022-12-07T12:05:45;23.10;;;10.77;;
59181;SDS011;45293;44.606;21.176;2022-12-07T12:08:20;18.42;;;9.25;;
59181;SDS011;45293;44.606;21.176;2022-12-07T12:11:01;19.35;;;9.43;;
59181;SDS011;45293;44.606;21.176;2022-12-07T12:21:16;16.00;;;7.95;;
59181;SDS011;45293;44.606;21.176;2022-12-07T12:26:47;13.43;;;8.38;;
59181;SDS011;45293;44.606;21.176;2022-12-07T12:29:03;18.92;;;9.15;;
59181;SDS011;45293;44.606;21.176;2022-12-07T12:31:32;14.15;;;7.95;;
59181;SDS011;45293;44.606;21.176;2022-12-07T12:34:01;18.65;;;9.20;;
59181;SDS011;45293;44.606;21.176;2022-12-07T12:44:38;17.83;;;10.93;;
59181;SDS011;45293;44.606;21.176;2022-12-07T12:46:53;20.15;;;10.32;;
59181;SDS011;45293;44.606;21.176;2022-12-07T12:51:52;22.23;;;11.30;;
59181;SDS011;45293;44.606;21.176;2022-12-07T12:54:21;18.13;;;11.05;;
59181;SDS011;45293;44.606;21.176;2022-12-07T12:59:24;20.73;;;11.85;;
59181;SDS011;45293;44.606;21.176;2022-12-07T13:01:52;22.17;;;11.60;;
59181;SDS011;45293;44.606;21.176;2022-12-07T13:04:27;20.83;;;10.90;;
59181;SDS011;45293;44.606;21.176;2022-12-07T13:06:53;22.60;;;12.90;;
59181;SDS011;45293;44.606;21.176;2022-12-07T13:09:21;21.25;;;11.73;;
59181;SDS011;45293;44.606;21.176;2022-12-07T13:11:48;25.80;;;11.25;;
59181;SDS011;45293;44.606;21.176;2022-12-07T13:16:59;19.60;;;9.63;;
59181;SDS011;45293;44.606;21.176;2022-12-07T13:19:33;16.88;;;8.25;;
59181;SDS011;45293;44.606;21.176;2022-12-07T13:27:41;16.02;;;8.50;;
59181;SDS011;45293;44.606;21.176;2022-12-07T13:30:18;17.25;;;8.30;;
59181;SDS011;45293;44.606;21.176;2022-12-07T13:32:54;16.23;;;9.32;;
59181;SDS011;45293;44.606;21.176;2022-12-07T13:35:30;16.42;;;9.25;;
59181;SDS011;45293;44.606;21.176;2022-12-07T13:37:57;19.77;;;10.05;;
59181;SDS011;45293;44.606;21.176;2022-12-07T13:40:23;16.50;;;10.18;;
59181;SDS011;45293;44.606;21.176;2022-12-07T13:43:00;18.55;;;9.98;;
59181;SDS011;45293;44.606;21.176;2022-12-07T13:45:27;17.13;;;10.52;;
59181;SDS011;45293;44.606;21.176;2022-12-07T13:50:48;17.23;;;10.07;;
59181;SDS011;45293;44.606;21.176;2022-12-07T13:53:17;16.48;;;9.75;;
59181;SDS011;45293;44.606;21.176;2022-12-07T13:55:44;18.52;;;10.77;;
59181;SDS011;45293;44.606;21.176;2022-12-07T13:58:10;25.08;;;13.07;;
59181;SDS011;45293;44.606;21.176;2022-12-07T14:00:37;22.58;;;12.70;;
59181;SDS011;45293;44.606;21.176;2022-12-07T14:03:04;43.08;;;21.50;;
59181;SDS011;45293;44.606;21.176;2022-12-07T14:05:31;26.13;;;14.80;;
59181;SDS011;45293;44.606;21.176;2022-12-07T14:08:43;34.97;;;20.42;;
59181;SDS011;45293;44.606;21.176;2022-12-07T14:15:49;32.45;;;17.10;;
59181;SDS011;45293;44.606;21.176;2022-12-07T14:21:04;32.50;;;17.35;;
59181;SDS011;45293;44.606;21.176;2022-12-07T14:23:31;31.08;;;17.23;;
59181;SDS011;45293;44.606;21.176;2022-12-07T14:28:42;31.38;;;16.85;;
59181;SDS011;45293;44.606;21.176;2022-12-07T14:31:16;38.17;;;19.05;;
59181;SDS011;45293;44.606;21.176;2022-12-07T14:33:42;40.90;;;19.02;;
59181;SDS011;45293;44.606;21.176;2022-12-07T14:36:09;45.28;;;21.65;;
59181;SDS011;45293;44.606;21.176;2022-12-07T14:38:36;51.95;;;25.83;;
59181;SDS011;45293;44.606;21.176;2022-12-07T14:41:02;44.88;;;25.15;;
59181;SDS011;45293;44.606;21.176;2022-12-07T14:43:48;45.83;;;23.30;;
59181;SDS011;45293;44.606;21.176;2022-12-07T14:46:14;37.30;;;18.23;;
59181;SDS011;45293;44.606;21.176;2022-12-07T14:48:40;34.38;;;15.27;;
59181;SDS011;45293;44.606;21.176;2022-12-07T14:51:07;19.80;;;11.43;;
59181;SDS011;45293;44.606;21.176;2022-12-07T14:53:36;20.40;;;11.15;;
59181;SDS011;45293;44.606;21.176;2022-12-07T14:56:05;29.55;;;15.15;;
59181;SDS011;45293;44.606;21.176;2022-12-07T14:58:31;42.30;;;21.63;;
59181;SDS011;45293;44.606;21.176;2022-12-07T15:00:57;46.35;;;24.38;;
59181;SDS011;45293;44.606;21.176;2022-12-07T15:03:23;62.40;;;30.10;;
59181;SDS011;45293;44.606;21.176;2022-12-07T15:05:49;78.07;;;36.08;;
59181;SDS011;45293;44.606;21.176;2022-12-07T15:08:16;71.25;;;35.47;;
59181;SDS011;45293;44.606;21.176;2022-12-07T15:10:42;75.50;;;34.33;;
59181;SDS011;45293;44.606;21.176;2022-12-07T15:13:09;44.42;;;21.92;;
59181;SDS011;45293;44.606;21.176;2022-12-07T15:15:54;42.67;;;17.95;;
59181;SDS011;45293;44.606;21.176;2022-12-07T15:18:20;30.27;;;13.95;;
59181;SDS011;45293;44.606;21.176;2022-12-07T15:20:47;27.30;;;13.93;;
59181;SDS011;45293;44.606;21.176;2022-12-07T15:23:13;21.90;;;11.60;;
59181;SDS011;45293;44.606;21.176;2022-12-07T15:25:40;24.95;;;11.43;;
59181;SDS011;45293;44.606;21.176;2022-12-07T15:28:06;25.35;;;12.05;;
59181;SDS011;45293;44.606;21.176;2022-12-07T15:30:33;38.83;;;19.17;;
59181;SDS011;45293;44.606;21.176;2022-12-07T15:32:59;37.92;;;19.20;;
59181;SDS011;45293;44.606;21.176;2022-12-07T15:35:25;40.58;;;22.20;;
59181;SDS011;45293;44.606;21.176;2022-12-07T15:37:51;29.42;;;15.45;;
59181;SDS011;45293;44.606;21.176;2022-12-07T15:40:17;31.58;;;15.38;;
59181;SDS011;45293;44.606;21.176;2022-12-07T15:42:44;27.88;;;15.70;;
59181;SDS011;45293;44.606;21.176;2022-12-07T15:45:10;34.42;;;16.75;;
59181;SDS011;45293;44.606;21.176;2022-12-07T15:47:40;33.10;;;15.82;;
59181;SDS011;45293;44.606;21.176;2022-12-07T15:50:10;27.75;;;14.85;;
59181;SDS011;45293;44.606;21.176;2022-12-07T15:52:36;32.58;;;17.33;;
59181;SDS011;45293;44.606;21.176;2022-12-07T15:55:03;41.67;;;20.48;;
59181;SDS011;45293;44.606;21.176;2022-12-07T15:57:30;48.22;;;23.95;;
59181;SDS011;45293;44.606;21.176;2022-12-07T15:59:56;50.70;;;24.08;;
59181;SDS011;45293;44.606;21.176;2022-12-07T16:02:22;63.67;;;25.02;;
59181;SDS011;45293;44.606;21.176;2022-12-07T16:04:48;41.92;;;21.30;;
59181;SDS011;45293;44.606;21.176;2022-12-07T16:07:15;44.95;;;21.48;;
59181;SDS011;45293;44.606;21.176;2022-12-07T16:09:42;44.22;;;20.33;;
59181;SDS011;45293;44.606;21.176;2022-12-07T16:12:09;50.35;;;20.70;;
59181;SDS011;45293;44.606;21.176;2022-12-07T16:14:35;43.00;;;20.23;;
59181;SDS011;45293;44.606;21.176;2022-12-07T16:17:01;42.85;;;20.42;;
59181;SDS011;45293;44.606;21.176;2022-12-07T16:19:29;36.53;;;17.48;;
59181;SDS011;45293;44.606;21.176;2022-12-07T16:21:55;39.00;;;19.60;;
59181;SDS011;45293;44.606;21.176;2022-12-07T16:24:21;45.15;;;22.20;;
59181;SDS011;45293;44.606;21.176;2022-12-07T16:26:47;47.80;;;22.65;;
59181;SDS011;45293;44.606;21.176;2022-12-07T16:42:32;28.30;;;12.10;;